sensor_id;sensor_type;location;lat;lon;timestamp;pressure;altitude;pressure_sealevel;temperature;humidity
54936;BME280;40838;50.676;7.838;2023-05-06T00:00:08;98395.59;;;6.10;100.00
54936;BME280;40838;50.676;7.838;2023-05-06T00:02:37;98397.03;;;6.17;100.00
54936;BME280;40838;50.676;7.838;2023-05-06T00:05:04;98395.78;;;6.25;100.00
54936;BME280;40838;50.676;7.838;2023-05-06T00:07:31;98393.47;;;6.29;100.00
54936;BME280;40838;50.676;7.838;2023-05-06T00:09:58;98393.94;;;6.25;100.00
54936;BME280;40838;50.676;7.838;2023-05-06T00:12:26;98394.63;;;6.16;100.00
54936;BME280;40838;50.676;7.838;2023-05-06T00:14:52;98386.06;;;6.31;100.00
54936;BME280;40838;50.676;7.838;2023-05-06T00:17:19;98384.47;;;6.30;100.00
54936;BME280;40838;50.676;7.838;2023-05-06T00:19:46;98376.34;;;6.14;100.00
54936;BME280;40838;50.676;7.838;2023-05-06T00:22:15;98375.44;;;6.03;100.00
54936;BME280;40838;50.676;7.838;2023-05-06T00:24:42;98381.66;;;6.14;100.00
54936;BME280;40838;50.676;7.838;2023-05-06T00:27:08;98374.44;;;6.10;100.00
54936;BME280;40838;50.676;7.838;2023-05-06T00:29:36;98378.13;;;6.09;100.00
54936;BME280;40838;50.676;7.838;2023-05-06T00:32:03;98375.53;;;6.14;100.00
54936;BME280;40838;50.676;7.838;2023-05-06T00:34:30;98369.03;;;5.99;100.00
54936;BME280;40838;50.676;7.838;2023-05-06T00:36:57;98370.44;;;6.07;100.00
54936;BME280;40838;50.676;7.838;2023-05-06T00:39:23;98377.41;;;5.91;100.00
54936;BME280;40838;50.676;7.838;2023-05-06T00:41:51;98367.66;;;6.19;100.00
54936;BME280;40838;50.676;7.838;2023-05-06T00:44:20;98378.66;;;6.11;100.00
54936;BME280;40838;50.676;7.838;2023-05-06T00:46:48;98377.03;;;6.27;100.00
54936;BME280;40838;50.676;7.838;2023-05-06T00:49:14;98374.75;;;6.35;100.00
54936;BME280;40838;50.676;7.838;2023-05-06T00:51:44;98367.84;;;6.12;100.00
54936;BME280;40838;50.676;7.838;2023-05-06T00:54:11;98364.84;;;6.03;100.00
54936;BME280;40838;50.676;7.838;2023-05-06T00:56:39;98366.44;;;6.05;100.00
54936;BME280;40838;50.676;7.838;2023-05-06T00:59:06;98360.28;;;5.99;100.00
54936;BME280;40838;50.676;7.838;2023-05-06T01:04:20;98366.00;;;6.13;100.00
54936;BME280;40838;50.676;7.838;2023-05-06T01:06:49;98355.00;;;6.21;100.00
54936;BME280;40838;50.676;7.838;2023-05-06T01:09:18;98359.78;;;6.24;100.00
54936;BME280;40838;50.676;7.838;2023-05-06T01:11:48;98360.28;;;6.21;100.00
54936;BME280;40838;50.676;7.838;2023-05-06T01:14:18;98348.50;;;6.07;100.00
54936;BME280;40838;50.676;7.838;2023-05-06T01:16:48;98357.53;;;5.89;100.00
54936;BME280;40838;50.676;7.838;2023-05-06T01:19:24;98359.19;;;5.95;100.00
54936;BME280;40838;50.676;7.838;2023-05-06T01:21:54;98357.22;;;5.85;100.00
54936;BME280;40838;50.676;7.838;2023-05-06T01:24:34;98355.28;;;5.80;100.00
54936;BME280;40838;50.676;7.838;2023-05-06T01:27:00;98353.72;;;5.63;100.00
54936;BME280;40838;50.676;7.838;2023-05-06T01:29:27;98359.66;;;5.53;100.00
54936;BME280;40838;50.676;7.838;2023-05-06T01:32:12;98360.38;;;5.48;100.00
54936;BME280;40838;50.676;7.838;2023-05-06T01:34:44;98359.19;;;5.39;100.00
54936;BME280;40838;50.676;7.838;2023-05-06T01:37:19;98361.03;;;5.05;100.00
54936;BME280;40838;50.676;7.838;2023-05-06T01:39:48;98360.16;;;5.16;100.00
54936;BME280;40838;50.676;7.838;2023-05-06T01:42:16;98356.03;;;5.03;100.00
54936;BME280;40838;50.676;7.838;2023-05-06T01:44:43;98362.56;;;5.01;100.00
54936;BME280;40838;50.676;7.838;2023-05-06T01:47:09;98359.06;;;4.95;100.00
54936;BME280;40838;50.676;7.838;2023-05-06T01:49:37;98362.06;;;4.87;100.00
54936;BME280;40838;50.676;7.838;2023-05-06T01:52:04;98361.97;;;4.82;100.00
54936;BME280;40838;50.676;7.838;2023-05-06T01:54:31;98353.84;;;4.83;100.00
54936;BME280;40838;50.676;7.838;2023-05-06T01:57:01;98361.28;;;4.86;100.00
54936;BME280;40838;50.676;7.838;2023-05-06T01:59:27;98369.34;;;4.80;100.00
54936;BME280;40838;50.676;7.838;2023-05-06T02:01:54;98367.38;;;4.58;100.00
54936;BME280;40838;50.676;7.838;2023-05-06T02:04:20;98369.47;;;4.56;100.00
54936;BME280;40838;50.676;7.838;2023-05-06T02:06:47;98366.00;;;4.56;100.00
54936;BME280;40838;50.676;7.838;2023-05-06T02:09:16;98369.75;;;4.43;100.00
54936;BME280;40838;50.676;7.838;2023-05-06T02:11:49;98373.94;;;4.27;100.00
54936;BME280;40838;50.676;7.838;2023-05-06T02:14:17;98373.69;;;4.29;100.00
54936;BME280;40838;50.676;7.838;2023-05-06T02:16:44;98379.66;;;4.24;100.00
54936;BME280;40838;50.676;7.838;2023-05-06T02:19:10;98379.13;;;4.10;100.00
54936;BME280;40838;50.676;7.838;2023-05-06T02:21:37;98374.50;;;4.17;100.00
54936;BME280;40838;50.676;7.838;2023-05-06T02:24:04;98379.31;;;4.20;100.00
54936;BME280;40838;50.676;7.838;2023-05-06T02:26:31;98373.16;;;4.27;100.00
54936;BME280;40838;50.676;7.838;2023-05-06T02:28:57;98374.94;;;4.26;100.00
54936;BME280;40838;50.676;7.838;2023-05-06T02:31:25;98376.44;;;4.22;100.00
54936;BME280;40838;50.676;7.838;2023-05-06T02:33:52;98377.03;;;4.24;100.00
54936;BME280;40838;50.676;7.838;2023-05-06T02:36:20;98388.25;;;4.19;100.00
54936;BME280;40838;50.676;7.838;2023-05-06T02:38:47;98383.13;;;4.13;100.00
54936;BME280;40838;50.676;7.838;2023-05-06T02:41:13;98375.00;;;3.91;100.00
54936;BME280;40838;50.676;7.838;2023-05-06T02:43:40;98377.56;;;3.86;100.00
54936;BME280;40838;50.676;7.838;2023-05-06T02:46:07;98374.66;;;3.99;100.00
54936;BME280;40838;50.676;7.838;2023-05-06T02:48:35;98370.03;;;4.18;100.00
54936;BME280;40838;50.676;7.838;2023-05-06T02:51:02;98369.47;;;4.28;100.00
54936;BME280;40838;50.676;7.838;2023-05-06T02:53:31;98365.03;;;4.45;100.00
54936;BME280;40838;50.676;7.838;2023-05-06T02:56:05;98368.53;;;4.34;100.00
54936;BME280;40838;50.676;7.838;2023-05-06T02:58:32;98375.38;;;4.35;100.00
54936;BME280;40838;50.676;7.838;2023-05-06T03:00:59;98369.09;;;4.81;100.00
54936;BME280;40838;50.676;7.838;2023-05-06T03:03:25;98373.69;;;4.86;100.00
54936;BME280;40838;50.676;7.838;2023-05-06T03:05:53;98379.78;;;4.58;100.00
54936;BME280;40838;50.676;7.838;2023-05-06T03:08:20;98367.78;;;4.67;100.00
54936;BME280;40838;50.676;7.838;2023-05-06T03:10:46;98372.13;;;4.56;100.00
54936;BME280;40838;50.676;7.838;2023-05-06T03:13:17;98378.41;;;4.55;100.00
54936;BME280;40838;50.676;7.838;2023-05-06T03:15:49;98381.84;;;4.56;100.00
54936;BME280;40838;50.676;7.838;2023-05-06T03:18:16;98380.19;;;4.66;100.00
54936;BME280;40838;50.676;7.838;2023-05-06T03:20:43;98377.56;;;4.66;100.00
54936;BME280;40838;50.676;7.838;2023-05-06T03:23:11;98375.16;;;4.65;100.00
54936;BME280;40838;50.676;7.838;2023-05-06T03:25:38;98377.00;;;4.64;100.00
54936;BME280;40838;50.676;7.838;2023-05-06T03:28:06;98380.78;;;4.69;100.00
54936;BME280;40838;50.676;7.838;2023-05-06T03:30:35;98374.88;;;4.50;100.00
54936;BME280;40838;50.676;7.838;2023-05-06T03:33:05;98373.22;;;4.60;100.00
54936;BME280;40838;50.676;7.838;2023-05-06T03:35:32;98363.25;;;4.34;100.00
54936;BME280;40838;50.676;7.838;2023-05-06T03:38:00;98366.41;;;4.48;100.00
54936;BME280;40838;50.676;7.838;2023-05-06T03:40:36;98372.38;;;4.43;100.00
54936;BME280;40838;50.676;7.838;2023-05-06T03:43:03;98362.16;;;4.47;100.00
54936;BME280;40838;50.676;7.838;2023-05-06T03:45:29;98361.34;;;4.46;100.00
54936;BME280;40838;50.676;7.838;2023-05-06T03:47:59;98359.66;;;4.40;100.00
54936;BME280;40838;50.676;7.838;2023-05-06T03:50:26;98360.94;;;4.26;100.00
54936;BME280;40838;50.676;7.838;2023-05-06T03:52:53;98360.50;;;4.29;100.00
54936;BME280;40838;50.676;7.838;2023-05-06T03:55:22;98357.88;;;4.29;100.00
54936;BME280;40838;50.676;7.838;2023-05-06T03:57:50;98367.75;;;4.21;100.00
54936;BME280;40838;50.676;7.838;2023-05-06T04:00:19;98368.16;;;4.42;100.00
54936;BME280;40838;50.676;7.838;2023-05-06T04:02:50;98370.38;;;4.33;100.00
54936;BME280;40838;50.676;7.838;2023-05-06T04:05:23;98365.38;;;4.49;100.00
54936;BME280;40838;50.676;7.838;2023-05-06T04:07:49;98366.41;;;4.48;100.00
54936;BME280;40838;50.676;7.838;2023-05-06T04:10:16;98371.44;;;4.49;100.00
54936;BME280;40838;50.676;7.838;2023-05-06T04:12:52;98371.22;;;4.79;100.00
54936;BME280;40838;50.676;7.838;2023-05-06T04:15:24;98369.84;;;4.94;100.00
54936;BME280;40838;50.676;7.838;2023-05-06T04:17:51;98368.03;;;4.94;100.00
54936;BME280;40838;50.676;7.838;2023-05-06T04:20:18;98363.16;;;5.03;100.00
54936;BME280;40838;50.676;7.838;2023-05-06T04:22:46;98369.06;;;4.48;100.00
54936;BME280;40838;50.676;7.838;2023-05-06T04:25:14;98364.53;;;4.60;100.00
54936;BME280;40838;50.676;7.838;2023-05-06T04:27:42;98367.00;;;4.66;100.00
54936;BME280;40838;50.676;7.838;2023-05-06T04:30:11;98367.91;;;4.72;100.00
54936;BME280;40838;50.676;7.838;2023-05-06T04:32:38;98362.03;;;4.70;100.00
54936;BME280;40838;50.676;7.838;2023-05-06T04:35:06;98373.31;;;4.94;100.00
54936;BME280;40838;50.676;7.838;2023-05-06T04:37:33;98371.47;;;4.95;100.00
54936;BME280;40838;50.676;7.838;2023-05-06T04:40:06;98374.00;;;4.89;100.00
54936;BME280;40838;50.676;7.838;2023-05-06T04:42:36;98377.38;;;5.02;100.00
54936;BME280;40838;50.676;7.838;2023-05-06T04:45:11;98378.00;;;5.60;100.00
54936;BME280;40838;50.676;7.838;2023-05-06T04:47:42;98382.31;;;5.66;100.00
54936;BME280;40838;50.676;7.838;2023-05-06T04:50:10;98385.88;;;5.76;100.00
54936;BME280;40838;50.676;7.838;2023-05-06T04:52:37;98390.00;;;5.67;100.00
54936;BME280;40838;50.676;7.838;2023-05-06T04:55:04;98387.38;;;5.50;100.00
54936;BME280;40838;50.676;7.838;2023-05-06T04:57:33;98390.63;;;5.57;100.00
54936;BME280;40838;50.676;7.838;2023-05-06T05:00:02;98393.44;;;5.51;100.00
54936;BME280;40838;50.676;7.838;2023-05-06T05:02:32;98409.22;;;5.12;100.00
54936;BME280;40838;50.676;7.838;2023-05-06T05:04:59;98399.38;;;5.24;100.00
54936;BME280;40838;50.676;7.838;2023-05-06T05:07:27;98407.38;;;4.96;100.00
54936;BME280;40838;50.676;7.838;2023-05-06T05:09:53;98402.50;;;5.55;100.00
54936;BME280;40838;50.676;7.838;2023-05-06T05:12:20;98402.50;;;5.55;100.00
54936;BME280;40838;50.676;7.838;2023-05-06T05:14:49;98403.03;;;5.74;100.00
54936;BME280;40838;50.676;7.838;2023-05-06T05:17:16;98403.34;;;6.16;100.00
54936;BME280;40838;50.676;7.838;2023-05-06T05:19:46;98409.81;;;6.03;100.00
54936;BME280;40838;50.676;7.838;2023-05-06T05:22:14;98403.84;;;6.13;100.00
54936;BME280;40838;50.676;7.838;2023-05-06T05:24:40;98419.09;;;6.06;100.00
54936;BME280;40838;50.676;7.838;2023-05-06T05:27:07;98419.56;;;5.64;100.00
54936;BME280;40838;50.676;7.838;2023-05-06T05:29:35;98415.59;;;5.84;100.00
54936;BME280;40838;50.676;7.838;2023-05-06T05:32:04;98419.03;;;6.01;100.00
54936;BME280;40838;50.676;7.838;2023-05-06T05:34:31;98412.34;;;7.46;100.00
54936;BME280;40838;50.676;7.838;2023-05-06T05:37:00;98415.13;;;9.53;100.00
54936;BME280;40838;50.676;7.838;2023-05-06T05:39:28;98405.34;;;12.91;100.00
54936;BME280;40838;50.676;7.838;2023-05-06T05:41:55;98407.13;;;15.44;100.00
54936;BME280;40838;50.676;7.838;2023-05-06T05:44:22;98413.56;;;17.24;95.88
54936;BME280;40838;50.676;7.838;2023-05-06T05:46:49;98412.75;;;17.49;88.28
54936;BME280;40838;50.676;7.838;2023-05-06T05:49:18;98411.38;;;18.92;77.52
54936;BME280;40838;50.676;7.838;2023-05-06T05:51:47;98421.53;;;16.28;96.60
54936;BME280;40838;50.676;7.838;2023-05-06T05:54:18;98411.38;;;17.26;90.69
54936;BME280;40838;50.676;7.838;2023-05-06T05:56:45;98414.19;;;17.29;87.28
54936;BME280;40838;50.676;7.838;2023-05-06T05:59:12;98427.50;;;15.77;98.83
54936;BME280;40838;50.676;7.838;2023-05-06T06:01:40;98424.94;;;14.81;100.00
54936;BME280;40838;50.676;7.838;2023-05-06T06:04:10;98418.31;;;15.46;100.00
54936;BME280;40838;50.676;7.838;2023-05-06T06:06:36;98409.78;;;16.64;92.51
54936;BME280;40838;50.676;7.838;2023-05-06T06:09:03;98414.03;;;16.82;90.44
54936;BME280;40838;50.676;7.838;2023-05-06T06:11:32;98422.53;;;16.32;92.78
54936;BME280;40838;50.676;7.838;2023-05-06T06:13:59;98407.38;;;17.96;84.01
54936;BME280;40838;50.676;7.838;2023-05-06T06:16:26;98412.56;;;17.54;86.11
54936;BME280;40838;50.676;7.838;2023-05-06T06:18:55;98417.66;;;17.47;88.47
54936;BME280;40838;50.676;7.838;2023-05-06T06:21:21;98419.03;;;16.32;93.50
54936;BME280;40838;50.676;7.838;2023-05-06T06:23:48;98415.25;;;16.33;96.97
54936;BME280;40838;50.676;7.838;2023-05-06T06:26:15;98406.69;;;18.08;85.94
54936;BME280;40838;50.676;7.838;2023-05-06T06:28:43;98412.66;;;18.23;86.43
54936;BME280;40838;50.676;7.838;2023-05-06T06:31:09;98403.00;;;18.72;85.84
54936;BME280;40838;50.676;7.838;2023-05-06T06:33:38;98408.47;;;17.95;88.55
54936;BME280;40838;50.676;7.838;2023-05-06T06:36:05;98412.25;;;18.03;86.90
54936;BME280;40838;50.676;7.838;2023-05-06T06:38:32;98413.28;;;17.25;92.55
54936;BME280;40838;50.676;7.838;2023-05-06T06:40:58;98427.81;;;16.15;100.00
54936;BME280;40838;50.676;7.838;2023-05-06T06:43:25;98426.31;;;14.79;100.00
54936;BME280;40838;50.676;7.838;2023-05-06T06:45:56;98429.59;;;15.88;100.00
54936;BME280;40838;50.676;7.838;2023-05-06T06:48:23;98420.03;;;18.05;90.01
54936;BME280;40838;50.676;7.838;2023-05-06T06:50:49;98417.34;;;18.64;83.61
54936;BME280;40838;50.676;7.838;2023-05-06T06:53:16;98416.22;;;16.46;97.30
54936;BME280;40838;50.676;7.838;2023-05-06T06:55:43;98413.41;;;17.38;91.40
54936;BME280;40838;50.676;7.838;2023-05-06T06:58:09;98425.00;;;15.35;100.00
54936;BME280;40838;50.676;7.838;2023-05-06T07:00:36;98424.16;;;16.59;93.94
54936;BME280;40838;50.676;7.838;2023-05-06T07:03:04;98417.19;;;19.56;80.97
54936;BME280;40838;50.676;7.838;2023-05-06T07:05:31;98425.13;;;20.11;75.81
54936;BME280;40838;50.676;7.838;2023-05-06T07:07:57;98424.75;;;18.46;81.46
54936;BME280;40838;50.676;7.838;2023-05-06T07:10:24;98424.06;;;19.78;79.15
54936;BME280;40838;50.676;7.838;2023-05-06T07:12:52;98421.19;;;20.08;75.74
54936;BME280;40838;50.676;7.838;2023-05-06T07:15:19;98414.50;;;21.95;60.66
54936;BME280;40838;50.676;7.838;2023-05-06T07:17:46;98421.03;;;21.63;69.42
54936;BME280;40838;50.676;7.838;2023-05-06T07:20:14;98411.84;;;21.99;59.96
54936;BME280;40838;50.676;7.838;2023-05-06T07:22:40;98422.53;;;20.39;68.07
54936;BME280;40838;50.676;7.838;2023-05-06T07:25:08;98426.91;;;19.37;74.43
54936;BME280;40838;50.676;7.838;2023-05-06T07:27:34;98425.13;;;20.11;74.68
54936;BME280;40838;50.676;7.838;2023-05-06T07:30:01;98419.59;;;20.44;72.41
54936;BME280;40838;50.676;7.838;2023-05-06T07:32:27;98424.25;;;20.07;77.10
54936;BME280;40838;50.676;7.838;2023-05-06T07:34:54;98422.88;;;19.88;79.08
54936;BME280;40838;50.676;7.838;2023-05-06T07:37:22;98420.84;;;20.34;76.31
54936;BME280;40838;50.676;7.838;2023-05-06T07:39:51;98417.44;;;18.88;80.50
54936;BME280;40838;50.676;7.838;2023-05-06T07:42:18;98418.56;;;19.75;79.07
54936;BME280;40838;50.676;7.838;2023-05-06T07:44:44;98424.00;;;19.99;79.08
54936;BME280;40838;50.676;7.838;2023-05-06T07:47:13;98420.19;;;20.13;76.45
54936;BME280;40838;50.676;7.838;2023-05-06T07:49:39;98421.25;;;19.75;77.23
54936;BME280;40838;50.676;7.838;2023-05-06T07:52:06;98426.59;;;19.84;77.48
54936;BME280;40838;50.676;7.838;2023-05-06T07:54:34;98420.03;;;20.46;72.99
54936;BME280;40838;50.676;7.838;2023-05-06T07:57:01;98429.25;;;19.71;75.30
54936;BME280;40838;50.676;7.838;2023-05-06T07:59:27;98424.06;;;19.78;74.58
54936;BME280;40838;50.676;7.838;2023-05-06T08:01:54;98424.69;;;20.21;71.25
54936;BME280;40838;50.676;7.838;2023-05-06T08:04:21;98427.44;;;19.09;74.78
54936;BME280;40838;50.676;7.838;2023-05-06T08:06:47;98428.38;;;19.34;71.58
54936;BME280;40838;50.676;7.838;2023-05-06T08:09:14;98426.47;;;19.47;72.00
54936;BME280;40838;50.676;7.838;2023-05-06T08:11:42;98437.44;;;17.43;80.95
54936;BME280;40838;50.676;7.838;2023-05-06T08:14:08;98443.47;;;15.50;90.66
54936;BME280;40838;50.676;7.838;2023-05-06T08:16:35;98433.47;;;16.62;88.04
54936;BME280;40838;50.676;7.838;2023-05-06T08:19:01;98438.06;;;17.57;88.09
54936;BME280;40838;50.676;7.838;2023-05-06T08:21:28;98437.28;;;16.87;89.53
54936;BME280;40838;50.676;7.838;2023-05-06T08:23:55;98444.06;;;17.71;85.59
54936;BME280;40838;50.676;7.838;2023-05-06T08:26:21;98436.84;;;18.02;85.29
54936;BME280;40838;50.676;7.838;2023-05-06T08:28:49;98450.66;;;16.26;91.98
54936;BME280;40838;50.676;7.838;2023-05-06T08:31:16;98455.97;;;14.96;97.38
54936;BME280;40838;50.676;7.838;2023-05-06T08:33:43;98456.03;;;15.95;92.00
54936;BME280;40838;50.676;7.838;2023-05-06T08:36:09;98446.97;;;16.22;91.53
54936;BME280;40838;50.676;7.838;2023-05-06T08:38:38;98445.63;;;16.11;94.46
54936;BME280;40838;50.676;7.838;2023-05-06T08:41:06;98435.72;;;16.86;87.75
54936;BME280;40838;50.676;7.838;2023-05-06T08:43:33;98429.41;;;17.25;85.74
54936;BME280;40838;50.676;7.838;2023-05-06T08:46:03;98435.34;;;18.51;81.46
54936;BME280;40838;50.676;7.838;2023-05-06T08:48:30;98442.03;;;18.45;78.69
54936;BME280;40838;50.676;7.838;2023-05-06T08:50:56;98433.03;;;18.62;77.41
54936;BME280;40838;50.676;7.838;2023-05-06T08:53:27;98435.53;;;18.46;80.47
54936;BME280;40838;50.676;7.838;2023-05-06T08:55:54;98433.13;;;18.15;82.51
54936;BME280;40838;50.676;7.838;2023-05-06T08:58:22;98428.19;;;18.76;73.16
54936;BME280;40838;50.676;7.838;2023-05-06T09:00:50;98436.66;;;16.81;80.76
54936;BME280;40838;50.676;7.838;2023-05-06T09:03:18;98435.72;;;18.03;78.75
54936;BME280;40838;50.676;7.838;2023-05-06T09:05:45;98432.88;;;17.35;82.78
54936;BME280;40838;50.676;7.838;2023-05-06T09:08:11;98444.72;;;15.31;87.16
54936;BME280;40838;50.676;7.838;2023-05-06T09:10:41;98432.22;;;17.46;81.43
54936;BME280;40838;50.676;7.838;2023-05-06T09:13:09;98439.78;;;16.49;80.73
54936;BME280;40838;50.676;7.838;2023-05-06T09:15:39;98429.44;;;16.99;80.60
54936;BME280;40838;50.676;7.838;2023-05-06T09:18:09;98435.22;;;14.88;91.17
54936;BME280;40838;50.676;7.838;2023-05-06T09:20:40;98426.16;;;16.36;88.15
54936;BME280;40838;50.676;7.838;2023-05-06T09:23:07;98434.22;;;15.65;84.59
54936;BME280;40838;50.676;7.838;2023-05-06T09:25:34;98427.59;;;16.51;85.43
54936;BME280;40838;50.676;7.838;2023-05-06T09:28:04;98430.22;;;15.54;81.56
54936;BME280;40838;50.676;7.838;2023-05-06T09:30:31;98429.50;;;15.40;84.75
54936;BME280;40838;50.676;7.838;2023-05-06T09:32:58;98425.41;;;15.42;79.91
54936;BME280;40838;50.676;7.838;2023-05-06T09:35:26;98429.53;;;15.26;84.49
54936;BME280;40838;50.676;7.838;2023-05-06T09:37:55;98423.91;;;16.21;84.01
54936;BME280;40838;50.676;7.838;2023-05-06T09:40:22;98424.19;;;16.19;78.26
54936;BME280;40838;50.676;7.838;2023-05-06T09:42:50;98423.69;;;17.36;75.76
54936;BME280;40838;50.676;7.838;2023-05-06T09:45:16;98424.81;;;18.58;66.80
54936;BME280;40838;50.676;7.838;2023-05-06T09:47:43;98422.97;;;19.13;70.38
54936;BME280;40838;50.676;7.838;2023-05-06T09:50:10;98421.97;;;16.70;74.14
54936;BME280;40838;50.676;7.838;2023-05-06T09:52:38;98420.06;;;17.31;74.28
54936;BME280;40838;50.676;7.838;2023-05-06T09:55:07;98419.25;;;17.31;72.45
54936;BME280;40838;50.676;7.838;2023-05-06T09:57:34;98412.53;;;18.40;73.71
54936;BME280;40838;50.676;7.838;2023-05-06T10:00:01;98414.28;;;18.65;71.75
54936;BME280;40838;50.676;7.838;2023-05-06T10:02:38;98414.56;;;18.94;71.53
54936;BME280;40838;50.676;7.838;2023-05-06T10:05:05;98410.38;;;19.84;58.76
54936;BME280;40838;50.676;7.838;2023-05-06T10:07:33;98407.16;;;19.24;62.42
54936;BME280;40838;50.676;7.838;2023-05-06T10:10:00;98402.78;;;18.77;64.31
54936;BME280;40838;50.676;7.838;2023-05-06T10:12:28;98402.31;;;17.95;72.60
54936;BME280;40838;50.676;7.838;2023-05-06T10:14:56;98400.91;;;18.48;65.52
54936;BME280;40838;50.676;7.838;2023-05-06T10:17:23;98395.91;;;19.01;69.21
54936;BME280;40838;50.676;7.838;2023-05-06T10:19:51;98404.09;;;19.92;68.35
54936;BME280;40838;50.676;7.838;2023-05-06T10:22:21;98398.19;;;17.42;76.38
54936;BME280;40838;50.676;7.838;2023-05-06T10:24:55;98398.06;;;16.86;81.06
54936;BME280;40838;50.676;7.838;2023-05-06T10:27:23;98397.88;;;16.39;81.03
54936;BME280;40838;50.676;7.838;2023-05-06T10:29:53;98397.72;;;17.22;79.98
54936;BME280;40838;50.676;7.838;2023-05-06T10:32:23;98389.53;;;17.10;76.65
54936;BME280;40838;50.676;7.838;2023-05-06T10:34:53;98388.28;;;17.72;74.31
54936;BME280;40838;50.676;7.838;2023-05-06T10:37:22;98381.41;;;18.93;66.39
54936;BME280;40838;50.676;7.838;2023-05-06T10:39:51;98383.53;;;18.66;69.39
54936;BME280;40838;50.676;7.838;2023-05-06T10:42:17;98385.97;;;19.47;66.84
54936;BME280;40838;50.676;7.838;2023-05-06T10:44:58;98384.63;;;18.65;66.25
54936;BME280;40838;50.676;7.838;2023-05-06T10:47:25;98374.75;;;19.24;63.52
54936;BME280;40838;50.676;7.838;2023-05-06T10:52:44;98375.09;;;16.54;74.88
54936;BME280;40838;50.676;7.838;2023-05-06T10:55:23;98371.06;;;16.16;76.88
54936;BME280;40838;50.676;7.838;2023-05-06T10:57:54;98375.16;;;14.39;86.00
54936;BME280;40838;50.676;7.838;2023-05-06T11:00:23;98369.41;;;15.89;80.42
54936;BME280;40838;50.676;7.838;2023-05-06T11:02:54;98359.63;;;16.85;78.43
54936;BME280;40838;50.676;7.838;2023-05-06T11:05:21;98359.41;;;18.82;63.35
54936;BME280;40838;50.676;7.838;2023-05-06T11:07:48;98356.16;;;19.55;58.87
54936;BME280;40838;50.676;7.838;2023-05-06T11:10:15;98357.31;;;20.28;56.29
54936;BME280;40838;50.676;7.838;2023-05-06T11:12:56;98363.06;;;20.02;59.98
54936;BME280;40838;50.676;7.838;2023-05-06T11:15:36;98365.16;;;18.30;65.44
54936;BME280;40838;50.676;7.838;2023-05-06T11:20:45;98358.53;;;18.28;65.67
54936;BME280;40838;50.676;7.838;2023-05-06T11:23:11;98356.78;;;18.74;65.80
54936;BME280;40838;50.676;7.838;2023-05-06T11:25:38;98358.50;;;18.78;68.57
54936;BME280;40838;50.676;7.838;2023-05-06T11:28:06;98352.84;;;19.95;61.38
54936;BME280;40838;50.676;7.838;2023-05-06T11:30:34;98347.22;;;20.65;61.83
54936;BME280;40838;50.676;7.838;2023-05-06T11:33:02;98349.03;;;19.39;59.16
54936;BME280;40838;50.676;7.838;2023-05-06T11:35:33;98346.88;;;19.20;62.49
54936;BME280;40838;50.676;7.838;2023-05-06T11:38:00;98350.13;;;16.79;70.41
54936;BME280;40838;50.676;7.838;2023-05-06T11:40:27;98353.44;;;16.85;67.21
54936;BME280;40838;50.676;7.838;2023-05-06T11:42:54;98352.50;;;17.07;71.81
54936;BME280;40838;50.676;7.838;2023-05-06T11:45:21;98340.50;;;18.49;67.36
54936;BME280;40838;50.676;7.838;2023-05-06T11:47:49;98346.31;;;17.71;57.92
54936;BME280;40838;50.676;7.838;2023-05-06T11:50:20;98332.22;;;18.87;59.19
54936;BME280;40838;50.676;7.838;2023-05-06T11:52:47;98338.00;;;18.14;56.13
54936;BME280;40838;50.676;7.838;2023-05-06T11:55:13;98331.44;;;16.66;68.49
54936;BME280;40838;50.676;7.838;2023-05-06T11:57:41;98334.97;;;15.51;70.51
54936;BME280;40838;50.676;7.838;2023-05-06T12:00:11;98340.16;;;15.88;70.55
54936;BME280;40838;50.676;7.838;2023-05-06T12:02:39;98337.69;;;16.00;68.78
54936;BME280;40838;50.676;7.838;2023-05-06T12:05:07;98328.94;;;17.89;58.29
54936;BME280;40838;50.676;7.838;2023-05-06T12:07:34;98333.78;;;18.55;56.13
54936;BME280;40838;50.676;7.838;2023-05-06T12:10:01;98333.84;;;19.01;59.20
54936;BME280;40838;50.676;7.838;2023-05-06T12:12:28;98323.75;;;18.14;58.48
54936;BME280;40838;50.676;7.838;2023-05-06T12:14:56;98326.56;;;18.38;57.53
54936;BME280;40838;50.676;7.838;2023-05-06T12:17:23;98331.66;;;18.61;55.28
54936;BME280;40838;50.676;7.838;2023-05-06T12:19:50;98326.66;;;18.72;56.26
54936;BME280;40838;50.676;7.838;2023-05-06T12:22:18;98328.25;;;18.73;57.84
54936;BME280;40838;50.676;7.838;2023-05-06T12:24:45;98334.84;;;18.63;52.62
54936;BME280;40838;50.676;7.838;2023-05-06T12:27:11;98322.38;;;19.74;52.47
54936;BME280;40838;50.676;7.838;2023-05-06T12:29:50;98323.19;;;19.04;50.97
54936;BME280;40838;50.676;7.838;2023-05-06T12:32:17;98320.97;;;19.89;49.70
54936;BME280;40838;50.676;7.838;2023-05-06T12:34:43;98323.50;;;19.03;55.72
54936;BME280;40838;50.676;7.838;2023-05-06T12:37:10;98318.91;;;18.70;51.37
54936;BME280;40838;50.676;7.838;2023-05-06T12:39:38;98322.84;;;18.73;51.67
54936;BME280;40838;50.676;7.838;2023-05-06T12:42:05;98313.44;;;17.86;57.16
54936;BME280;40838;50.676;7.838;2023-05-06T12:44:33;98315.22;;;17.35;65.25
54936;BME280;40838;50.676;7.838;2023-05-06T12:47:02;98319.53;;;17.19;61.74
54936;BME280;40838;50.676;7.838;2023-05-06T12:49:44;98319.56;;;17.57;58.84
54936;BME280;40838;50.676;7.838;2023-05-06T12:52:11;98311.31;;;17.62;59.61
54936;BME280;40838;50.676;7.838;2023-05-06T12:54:39;98317.13;;;17.82;58.20
54936;BME280;40838;50.676;7.838;2023-05-06T12:57:06;98310.28;;;17.46;63.06
54936;BME280;40838;50.676;7.838;2023-05-06T12:59:33;98310.69;;;16.92;65.50
54936;BME280;40838;50.676;7.838;2023-05-06T13:02:00;98311.63;;;17.99;63.05
54936;BME280;40838;50.676;7.838;2023-05-06T13:04:27;98310.22;;;18.23;60.02
54936;BME280;40838;50.676;7.838;2023-05-06T13:06:53;98307.25;;;17.47;60.78
54936;BME280;40838;50.676;7.838;2023-05-06T13:09:21;98307.81;;;17.70;62.74
54936;BME280;40838;50.676;7.838;2023-05-06T13:11:49;98305.66;;;18.14;60.05